Pointe Noire, Canada
Current Conditions -  °F | °C
As of 12:00 AM on Friday 31 Oct 2014 (Local Time) from CYZV Reporting Station
Clear Clear  
Wind Chill: 23°   Ceiling: Unl
Heat Index: 28°   Visibility: 15mi
Dew Point: 21°   Wind: 5mph
Humidity: 74%   Direction: 260°W
Pressure: 29.85"   Gusts: NA
Location:  50.15°N, 66.43°W
Report Text: CYZV 310400Z 26004KT 15SM SKC M02/M06 A2985 RMK SLP112
Loading
Personal Weather Stations






























Interactive Weather Map
Tropical Storm Tracking
New forecast layout! Learn more

10-Day Weather Forecast

Advertisements
Track Severe Weather on mobile